sensor_id;sensor_type;location;lat;lon;timestamp;P1;durP1;ratioP1;P2;durP2;ratioP2
31594;SDS011;18200;48.726;8.892;2023-09-30T00:00:32;12.57;;;4.93;;
31594;SDS011;18200;48.726;8.892;2023-09-30T00:04:33;15.98;;;5.28;;
31594;SDS011;18200;48.726;8.892;2023-09-30T00:08:34;13.30;;;5.03;;
31594;SDS011;18200;48.726;8.892;2023-09-30T00:12:34;13.60;;;4.95;;
31594;SDS011;18200;48.726;8.892;2023-09-30T00:16:34;14.43;;;5.70;;
31594;SDS011;18200;48.726;8.892;2023-09-30T00:20:35;14.88;;;5.22;;
31594;SDS011;18200;48.726;8.892;2023-09-30T00:24:35;14.75;;;5.35;;
31594;SDS011;18200;48.726;8.892;2023-09-30T00:28:36;16.40;;;5.78;;
31594;SDS011;18200;48.726;8.892;2023-09-30T00:32:36;12.95;;;5.10;;
31594;SDS011;18200;48.726;8.892;2023-09-30T00:36:36;12.35;;;4.75;;
31594;SDS011;18200;48.726;8.892;2023-09-30T00:40:37;13.45;;;4.78;;
31594;SDS011;18200;48.726;8.892;2023-09-30T00:44:37;12.93;;;5.53;;
31594;SDS011;18200;48.726;8.892;2023-09-30T00:48:37;15.10;;;5.50;;
31594;SDS011;18200;48.726;8.892;2023-09-30T00:52:39;14.88;;;4.95;;
31594;SDS011;18200;48.726;8.892;2023-09-30T00:56:43;13.75;;;5.43;;
31594;SDS011;18200;48.726;8.892;2023-09-30T01:00:48;12.13;;;4.78;;
31594;SDS011;18200;48.726;8.892;2023-09-30T01:04:48;13.73;;;4.72;;
31594;SDS011;18200;48.726;8.892;2023-09-30T01:08:49;12.50;;;5.25;;
31594;SDS011;18200;48.726;8.892;2023-09-30T01:12:50;17.00;;;5.43;;
31594;SDS011;18200;48.726;8.892;2023-09-30T01:16:50;12.40;;;4.70;;
31594;SDS011;18200;48.726;8.892;2023-09-30T01:20:51;14.05;;;4.55;;
31594;SDS011;18200;48.726;8.892;2023-09-30T01:24:53;11.23;;;4.53;;
31594;SDS011;18200;48.726;8.892;2023-09-30T01:28:53;12.20;;;4.05;;
31594;SDS011;18200;48.726;8.892;2023-09-30T01:32:54;14.40;;;4.50;;
31594;SDS011;18200;48.726;8.892;2023-09-30T01:36:56;12.45;;;4.88;;
31594;SDS011;18200;48.726;8.892;2023-09-30T01:40:57;9.93;;;4.25;;
31594;SDS011;18200;48.726;8.892;2023-09-30T01:44:57;12.18;;;4.70;;
31594;SDS011;18200;48.726;8.892;2023-09-30T01:48:58;12.60;;;4.78;;
31594;SDS011;18200;48.726;8.892;2023-09-30T01:52:58;12.73;;;5.32;;
31594;SDS011;18200;48.726;8.892;2023-09-30T01:56:58;10.18;;;4.45;;
31594;SDS011;18200;48.726;8.892;2023-09-30T02:01:02;12.43;;;4.78;;
31594;SDS011;18200;48.726;8.892;2023-09-30T02:05:04;11.50;;;5.18;;
31594;SDS011;18200;48.726;8.892;2023-09-30T02:09:04;12.50;;;5.00;;
31594;SDS011;18200;48.726;8.892;2023-09-30T02:13:07;11.77;;;4.30;;
31594;SDS011;18200;48.726;8.892;2023-09-30T02:17:08;13.18;;;5.00;;
31594;SDS011;18200;48.726;8.892;2023-09-30T02:21:09;13.38;;;4.40;;
31594;SDS011;18200;48.726;8.892;2023-09-30T02:25:09;12.88;;;4.47;;
31594;SDS011;18200;48.726;8.892;2023-09-30T02:29:11;12.57;;;4.63;;
31594;SDS011;18200;48.726;8.892;2023-09-30T02:33:12;10.77;;;4.57;;
31594;SDS011;18200;48.726;8.892;2023-09-30T02:37:12;10.90;;;4.45;;
31594;SDS011;18200;48.726;8.892;2023-09-30T02:41:12;11.98;;;4.57;;
31594;SDS011;18200;48.726;8.892;2023-09-30T02:45:13;14.95;;;4.78;;
31594;SDS011;18200;48.726;8.892;2023-09-30T02:49:14;10.30;;;4.22;;
31594;SDS011;18200;48.726;8.892;2023-09-30T02:53:15;12.98;;;4.35;;
31594;SDS011;18200;48.726;8.892;2023-09-30T02:57:15;12.50;;;4.68;;
31594;SDS011;18200;48.726;8.892;2023-09-30T03:01:16;11.18;;;4.60;;
31594;SDS011;18200;48.726;8.892;2023-09-30T03:05:17;18.50;;;4.30;;
31594;SDS011;18200;48.726;8.892;2023-09-30T03:09:18;12.18;;;4.22;;
31594;SDS011;18200;48.726;8.892;2023-09-30T03:13:18;9.25;;;3.95;;
31594;SDS011;18200;48.726;8.892;2023-09-30T03:17:21;10.43;;;4.20;;
31594;SDS011;18200;48.726;8.892;2023-09-30T03:21:22;10.13;;;3.85;;
31594;SDS011;18200;48.726;8.892;2023-09-30T03:25:22;9.60;;;3.63;;
31594;SDS011;18200;48.726;8.892;2023-09-30T03:29:23;9.88;;;3.78;;
31594;SDS011;18200;48.726;8.892;2023-09-30T03:33:23;12.15;;;4.07;;
31594;SDS011;18200;48.726;8.892;2023-09-30T03:37:23;11.65;;;4.22;;
31594;SDS011;18200;48.726;8.892;2023-09-30T03:41:26;9.30;;;3.55;;
31594;SDS011;18200;48.726;8.892;2023-09-30T03:45:28;9.88;;;3.95;;
31594;SDS011;18200;48.726;8.892;2023-09-30T03:49:29;8.73;;;3.95;;
31594;SDS011;18200;48.726;8.892;2023-09-30T03:53:29;8.20;;;3.60;;
31594;SDS011;18200;48.726;8.892;2023-09-30T03:57:33;9.82;;;3.80;;
31594;SDS011;18200;48.726;8.892;2023-09-30T04:01:36;9.52;;;3.72;;
31594;SDS011;18200;48.726;8.892;2023-09-30T04:05:40;12.93;;;3.87;;
31594;SDS011;18200;48.726;8.892;2023-09-30T04:09:40;9.55;;;3.45;;
31594;SDS011;18200;48.726;8.892;2023-09-30T04:13:40;12.77;;;3.83;;
31594;SDS011;18200;48.726;8.892;2023-09-30T04:17:41;9.32;;;4.03;;
31594;SDS011;18200;48.726;8.892;2023-09-30T04:21:41;8.70;;;3.80;;
31594;SDS011;18200;48.726;8.892;2023-09-30T04:25:43;9.32;;;3.55;;
31594;SDS011;18200;48.726;8.892;2023-09-30T04:29:43;10.52;;;3.85;;
31594;SDS011;18200;48.726;8.892;2023-09-30T04:33:43;12.05;;;4.47;;
31594;SDS011;18200;48.726;8.892;2023-09-30T04:37:44;9.25;;;3.92;;
31594;SDS011;18200;48.726;8.892;2023-09-30T04:41:45;9.85;;;4.43;;
31594;SDS011;18200;48.726;8.892;2023-09-30T04:45:47;8.95;;;4.22;;
31594;SDS011;18200;48.726;8.892;2023-09-30T04:49:49;11.40;;;4.18;;
31594;SDS011;18200;48.726;8.892;2023-09-30T04:53:51;9.82;;;5.32;;
31594;SDS011;18200;48.726;8.892;2023-09-30T04:57:52;9.40;;;4.18;;
31594;SDS011;18200;48.726;8.892;2023-09-30T05:01:52;8.98;;;3.85;;
31594;SDS011;18200;48.726;8.892;2023-09-30T05:05:53;9.25;;;4.43;;
31594;SDS011;18200;48.726;8.892;2023-09-30T05:09:55;9.07;;;3.70;;
31594;SDS011;18200;48.726;8.892;2023-09-30T05:13:56;12.23;;;4.85;;
31594;SDS011;18200;48.726;8.892;2023-09-30T05:17:56;9.50;;;3.92;;
31594;SDS011;18200;48.726;8.892;2023-09-30T05:21:56;9.52;;;3.72;;
31594;SDS011;18200;48.726;8.892;2023-09-30T05:25:57;8.90;;;3.78;;
31594;SDS011;18200;48.726;8.892;2023-09-30T05:29:57;8.32;;;3.75;;
31594;SDS011;18200;48.726;8.892;2023-09-30T05:33:57;10.38;;;3.70;;
31594;SDS011;18200;48.726;8.892;2023-09-30T05:37:58;10.63;;;3.80;;
31594;SDS011;18200;48.726;8.892;2023-09-30T05:41:58;9.20;;;3.58;;
31594;SDS011;18200;48.726;8.892;2023-09-30T05:45:59;8.05;;;3.58;;
31594;SDS011;18200;48.726;8.892;2023-09-30T05:49:59;7.53;;;3.75;;
31594;SDS011;18200;48.726;8.892;2023-09-30T05:53:59;9.43;;;3.72;;
31594;SDS011;18200;48.726;8.892;2023-09-30T05:58:00;8.65;;;4.22;;
31594;SDS011;18200;48.726;8.892;2023-09-30T06:02:01;10.82;;;4.25;;
31594;SDS011;18200;48.726;8.892;2023-09-30T06:06:02;11.55;;;3.70;;
31594;SDS011;18200;48.726;8.892;2023-09-30T06:10:03;9.00;;;3.97;;
31594;SDS011;18200;48.726;8.892;2023-09-30T06:14:03;9.40;;;4.40;;
31594;SDS011;18200;48.726;8.892;2023-09-30T06:18:06;7.85;;;3.42;;
31594;SDS011;18200;48.726;8.892;2023-09-30T06:22:07;10.60;;;4.00;;
31594;SDS011;18200;48.726;8.892;2023-09-30T06:26:07;11.30;;;4.63;;
31594;SDS011;18200;48.726;8.892;2023-09-30T06:30:08;7.55;;;3.58;;
31594;SDS011;18200;48.726;8.892;2023-09-30T06:34:09;9.65;;;3.88;;
31594;SDS011;18200;48.726;8.892;2023-09-30T06:38:11;9.13;;;3.88;;
31594;SDS011;18200;48.726;8.892;2023-09-30T06:42:11;8.68;;;3.55;;
31594;SDS011;18200;48.726;8.892;2023-09-30T06:46:12;11.38;;;4.32;;
31594;SDS011;18200;48.726;8.892;2023-09-30T06:50:13;9.50;;;4.25;;
31594;SDS011;18200;48.726;8.892;2023-09-30T06:54:16;8.05;;;3.75;;
31594;SDS011;18200;48.726;8.892;2023-09-30T06:58:17;9.68;;;3.63;;
31594;SDS011;18200;48.726;8.892;2023-09-30T07:02:21;8.88;;;4.00;;
31594;SDS011;18200;48.726;8.892;2023-09-30T07:06:22;11.98;;;4.40;;
31594;SDS011;18200;48.726;8.892;2023-09-30T07:10:24;8.95;;;4.47;;
31594;SDS011;18200;48.726;8.892;2023-09-30T07:14:24;9.77;;;4.45;;
31594;SDS011;18200;48.726;8.892;2023-09-30T07:18:24;10.45;;;4.22;;
31594;SDS011;18200;48.726;8.892;2023-09-30T07:22:25;7.70;;;4.20;;
31594;SDS011;18200;48.726;8.892;2023-09-30T07:26:26;11.80;;;4.88;;
31594;SDS011;18200;48.726;8.892;2023-09-30T07:30:28;9.07;;;4.50;;
31594;SDS011;18200;48.726;8.892;2023-09-30T07:34:28;11.00;;;5.30;;
31594;SDS011;18200;48.726;8.892;2023-09-30T07:38:28;12.43;;;6.05;;
31594;SDS011;18200;48.726;8.892;2023-09-30T07:42:29;12.50;;;6.43;;
31594;SDS011;18200;48.726;8.892;2023-09-30T07:46:30;11.40;;;5.60;;
31594;SDS011;18200;48.726;8.892;2023-09-30T07:50:31;13.23;;;5.57;;
31594;SDS011;18200;48.726;8.892;2023-09-30T07:54:31;14.45;;;5.85;;
31594;SDS011;18200;48.726;8.892;2023-09-30T07:58:32;8.60;;;5.20;;
31594;SDS011;18200;48.726;8.892;2023-09-30T08:02:33;13.50;;;5.80;;
31594;SDS011;18200;48.726;8.892;2023-09-30T08:06:33;14.15;;;6.45;;
31594;SDS011;18200;48.726;8.892;2023-09-30T08:10:34;10.13;;;5.72;;
31594;SDS011;18200;48.726;8.892;2023-09-30T08:14:36;13.52;;;6.65;;
31594;SDS011;18200;48.726;8.892;2023-09-30T08:18:36;12.93;;;6.45;;
31594;SDS011;18200;48.726;8.892;2023-09-30T08:22:37;17.60;;;6.93;;
31594;SDS011;18200;48.726;8.892;2023-09-30T08:26:37;14.02;;;6.10;;
31594;SDS011;18200;48.726;8.892;2023-09-30T08:30:38;14.80;;;5.32;;
31594;SDS011;18200;48.726;8.892;2023-09-30T08:34:38;11.70;;;5.65;;
31594;SDS011;18200;48.726;8.892;2023-09-30T08:38:39;13.25;;;5.65;;
31594;SDS011;18200;48.726;8.892;2023-09-30T08:42:40;11.43;;;5.80;;
31594;SDS011;18200;48.726;8.892;2023-09-30T08:46:41;12.32;;;5.68;;
31594;SDS011;18200;48.726;8.892;2023-09-30T08:50:42;11.45;;;5.47;;
31594;SDS011;18200;48.726;8.892;2023-09-30T08:54:43;14.07;;;5.88;;
31594;SDS011;18200;48.726;8.892;2023-09-30T08:58:43;13.75;;;5.88;;
31594;SDS011;18200;48.726;8.892;2023-09-30T09:02:44;16.85;;;6.07;;
31594;SDS011;18200;48.726;8.892;2023-09-30T09:06:44;13.00;;;5.72;;
31594;SDS011;18200;48.726;8.892;2023-09-30T09:10:58;14.70;;;5.85;;
31594;SDS011;18200;48.726;8.892;2023-09-30T09:15:00;15.75;;;5.55;;
31594;SDS011;18200;48.726;8.892;2023-09-30T09:19:12;11.38;;;5.30;;
31594;SDS011;18200;48.726;8.892;2023-09-30T09:23:14;13.60;;;5.40;;
31594;SDS011;18200;48.726;8.892;2023-09-30T09:27:15;9.30;;;3.80;;
31594;SDS011;18200;48.726;8.892;2023-09-30T09:31:20;9.18;;;3.58;;
31594;SDS011;18200;48.726;8.892;2023-09-30T09:35:22;9.57;;;4.22;;
31594;SDS011;18200;48.726;8.892;2023-09-30T09:39:28;10.65;;;4.00;;
31594;SDS011;18200;48.726;8.892;2023-09-30T09:43:31;10.02;;;4.50;;
31594;SDS011;18200;48.726;8.892;2023-09-30T09:47:35;12.35;;;4.45;;
31594;SDS011;18200;48.726;8.892;2023-09-30T09:51:36;11.85;;;4.22;;
31594;SDS011;18200;48.726;8.892;2023-09-30T09:55:36;13.30;;;5.20;;
31594;SDS011;18200;48.726;8.892;2023-09-30T09:59:39;9.32;;;4.60;;
31594;SDS011;18200;48.726;8.892;2023-09-30T10:03:39;9.13;;;4.50;;
31594;SDS011;18200;48.726;8.892;2023-09-30T10:07:42;9.00;;;4.60;;
31594;SDS011;18200;48.726;8.892;2023-09-30T10:11:47;12.93;;;5.43;;
31594;SDS011;18200;48.726;8.892;2023-09-30T10:15:48;10.73;;;4.72;;
31594;SDS011;18200;48.726;8.892;2023-09-30T10:20:22;9.82;;;4.70;;
31594;SDS011;18200;48.726;8.892;2023-09-30T10:36:57;12.00;;;5.10;;
31594;SDS011;18200;48.726;8.892;2023-09-30T10:40:57;14.90;;;6.03;;
31594;SDS011;18200;48.726;8.892;2023-09-30T10:44:58;16.50;;;6.65;;
31594;SDS011;18200;48.726;8.892;2023-09-30T10:49:14;16.00;;;5.97;;
31594;SDS011;18200;48.726;8.892;2023-09-30T10:53:17;15.85;;;6.20;;
31594;SDS011;18200;48.726;8.892;2023-09-30T10:57:27;12.90;;;5.20;;
31594;SDS011;18200;48.726;8.892;2023-09-30T11:01:32;17.48;;;6.95;;
31594;SDS011;18200;48.726;8.892;2023-09-30T11:05:36;13.35;;;6.47;;
31594;SDS011;18200;48.726;8.892;2023-09-30T11:09:37;15.98;;;6.40;;
31594;SDS011;18200;48.726;8.892;2023-09-30T11:13:37;12.18;;;6.05;;
31594;SDS011;18200;48.726;8.892;2023-09-30T11:17:39;14.52;;;6.60;;
31594;SDS011;18200;48.726;8.892;2023-09-30T11:21:40;17.58;;;6.63;;
31594;SDS011;18200;48.726;8.892;2023-09-30T11:25:41;13.82;;;6.10;;
31594;SDS011;18200;48.726;8.892;2023-09-30T11:29:48;14.25;;;6.45;;
31594;SDS011;18200;48.726;8.892;2023-09-30T11:33:50;15.45;;;6.25;;
31594;SDS011;18200;48.726;8.892;2023-09-30T11:37:52;15.32;;;6.82;;
31594;SDS011;18200;48.726;8.892;2023-09-30T11:41:53;15.20;;;6.70;;
31594;SDS011;18200;48.726;8.892;2023-09-30T11:50:08;17.02;;;6.30;;
31594;SDS011;18200;48.726;8.892;2023-09-30T11:54:09;13.65;;;5.07;;
31594;SDS011;18200;48.726;8.892;2023-09-30T11:58:11;11.38;;;5.15;;
31594;SDS011;18200;48.726;8.892;2023-09-30T12:02:15;14.15;;;6.00;;
31594;SDS011;18200;48.726;8.892;2023-09-30T12:06:17;12.07;;;5.57;;
31594;SDS011;18200;48.726;8.892;2023-09-30T12:10:18;13.95;;;5.70;;
31594;SDS011;18200;48.726;8.892;2023-09-30T12:14:19;15.23;;;5.78;;
31594;SDS011;18200;48.726;8.892;2023-09-30T12:18:23;16.15;;;6.05;;
31594;SDS011;18200;48.726;8.892;2023-09-30T12:22:24;14.82;;;5.70;;
31594;SDS011;18200;48.726;8.892;2023-09-30T12:26:24;13.13;;;5.53;;
31594;SDS011;18200;48.726;8.892;2023-09-30T12:30:26;13.50;;;5.95;;
31594;SDS011;18200;48.726;8.892;2023-09-30T12:34:26;13.52;;;5.40;;
31594;SDS011;18200;48.726;8.892;2023-09-30T12:38:27;13.20;;;5.53;;
31594;SDS011;18200;48.726;8.892;2023-09-30T12:42:28;16.33;;;6.28;;
31594;SDS011;18200;48.726;8.892;2023-09-30T12:46:30;11.73;;;5.43;;
31594;SDS011;18200;48.726;8.892;2023-09-30T12:54:34;13.48;;;6.13;;
31594;SDS011;18200;48.726;8.892;2023-09-30T12:58:34;13.95;;;6.53;;
31594;SDS011;18200;48.726;8.892;2023-09-30T13:02:35;13.10;;;6.05;;
31594;SDS011;18200;48.726;8.892;2023-09-30T13:06:35;13.00;;;5.95;;
31594;SDS011;18200;48.726;8.892;2023-09-30T13:10:37;12.48;;;5.78;;
31594;SDS011;18200;48.726;8.892;2023-09-30T13:14:38;13.57;;;5.22;;
31594;SDS011;18200;48.726;8.892;2023-09-30T13:18:39;14.32;;;5.65;;
31594;SDS011;18200;48.726;8.892;2023-09-30T13:22:39;15.15;;;6.68;;
31594;SDS011;18200;48.726;8.892;2023-09-30T13:26:39;12.35;;;5.78;;
31594;SDS011;18200;48.726;8.892;2023-09-30T13:30:40;11.80;;;5.72;;
31594;SDS011;18200;48.726;8.892;2023-09-30T13:34:40;11.70;;;5.80;;
31594;SDS011;18200;48.726;8.892;2023-09-30T13:38:41;13.88;;;6.00;;
31594;SDS011;18200;48.726;8.892;2023-09-30T13:42:41;15.60;;;6.22;;
31594;SDS011;18200;48.726;8.892;2023-09-30T13:46:42;16.05;;;5.97;;
31594;SDS011;18200;48.726;8.892;2023-09-30T13:50:42;15.30;;;6.38;;
31594;SDS011;18200;48.726;8.892;2023-09-30T13:54:43;13.77;;;5.72;;
31594;SDS011;18200;48.726;8.892;2023-09-30T13:58:43;13.70;;;5.90;;
31594;SDS011;18200;48.726;8.892;2023-09-30T14:02:44;15.25;;;6.28;;
31594;SDS011;18200;48.726;8.892;2023-09-30T14:06:44;14.40;;;6.22;;
31594;SDS011;18200;48.726;8.892;2023-09-30T14:10:44;14.07;;;5.95;;
31594;SDS011;18200;48.726;8.892;2023-09-30T14:14:45;14.27;;;6.25;;
31594;SDS011;18200;48.726;8.892;2023-09-30T14:18:45;13.38;;;5.60;;
31594;SDS011;18200;48.726;8.892;2023-09-30T14:22:46;15.30;;;5.82;;
31594;SDS011;18200;48.726;8.892;2023-09-30T14:26:46;13.63;;;6.53;;
31594;SDS011;18200;48.726;8.892;2023-09-30T14:30:46;12.40;;;5.77;;
31594;SDS011;18200;48.726;8.892;2023-09-30T14:34:47;13.27;;;5.78;;
31594;SDS011;18200;48.726;8.892;2023-09-30T14:38:47;14.10;;;6.20;;
31594;SDS011;18200;48.726;8.892;2023-09-30T14:42:49;12.70;;;5.80;;
31594;SDS011;18200;48.726;8.892;2023-09-30T14:46:49;15.95;;;6.10;;
31594;SDS011;18200;48.726;8.892;2023-09-30T14:50:50;14.75;;;5.97;;
31594;SDS011;18200;48.726;8.892;2023-09-30T14:54:51;15.63;;;6.80;;
31594;SDS011;18200;48.726;8.892;2023-09-30T14:58:51;18.08;;;6.30;;
31594;SDS011;18200;48.726;8.892;2023-09-30T15:02:52;11.32;;;5.40;;
31594;SDS011;18200;48.726;8.892;2023-09-30T15:06:54;17.33;;;6.45;;
31594;SDS011;18200;48.726;8.892;2023-09-30T15:10:55;12.30;;;6.03;;
31594;SDS011;18200;48.726;8.892;2023-09-30T15:14:55;14.00;;;5.75;;
31594;SDS011;18200;48.726;8.892;2023-09-30T15:18:55;11.73;;;5.82;;
31594;SDS011;18200;48.726;8.892;2023-09-30T15:22:56;13.10;;;5.95;;
31594;SDS011;18200;48.726;8.892;2023-09-30T15:26:56;16.38;;;5.90;;
31594;SDS011;18200;48.726;8.892;2023-09-30T15:30:56;14.82;;;6.22;;
31594;SDS011;18200;48.726;8.892;2023-09-30T15:34:58;16.15;;;7.40;;
31594;SDS011;18200;48.726;8.892;2023-09-30T15:38:59;14.57;;;6.70;;
31594;SDS011;18200;48.726;8.892;2023-09-30T15:42:59;13.52;;;6.15;;
31594;SDS011;18200;48.726;8.892;2023-09-30T15:47:00;17.00;;;5.95;;
31594;SDS011;18200;48.726;8.892;2023-09-30T15:51:00;17.88;;;7.55;;
31594;SDS011;18200;48.726;8.892;2023-09-30T15:55:00;12.60;;;6.38;;
31594;SDS011;18200;48.726;8.892;2023-09-30T15:59:01;15.38;;;6.97;;
31594;SDS011;18200;48.726;8.892;2023-09-30T16:03:01;17.10;;;7.13;;
31594;SDS011;18200;48.726;8.892;2023-09-30T16:07:02;20.02;;;7.13;;
31594;SDS011;18200;48.726;8.892;2023-09-30T16:11:03;13.55;;;5.63;;
31594;SDS011;18200;48.726;8.892;2023-09-30T16:15:03;12.20;;;5.87;;
31594;SDS011;18200;48.726;8.892;2023-09-30T16:19:05;18.02;;;6.93;;
31594;SDS011;18200;48.726;8.892;2023-09-30T16:23:06;15.20;;;5.55;;
31594;SDS011;18200;48.726;8.892;2023-09-30T16:27:06;12.63;;;5.50;;
31594;SDS011;18200;48.726;8.892;2023-09-30T16:31:06;15.90;;;5.90;;
31594;SDS011;18200;48.726;8.892;2023-09-30T16:35:07;11.45;;;5.22;;
31594;SDS011;18200;48.726;8.892;2023-09-30T16:39:08;12.43;;;5.63;;
31594;SDS011;18200;48.726;8.892;2023-09-30T16:43:08;13.63;;;6.20;;
31594;SDS011;18200;48.726;8.892;2023-09-30T16:47:09;15.95;;;6.60;;
31594;SDS011;18200;48.726;8.892;2023-09-30T16:51:10;15.03;;;6.03;;
31594;SDS011;18200;48.726;8.892;2023-09-30T16:55:11;13.27;;;5.90;;
31594;SDS011;18200;48.726;8.892;2023-09-30T16:59:11;11.73;;;5.55;;
31594;SDS011;18200;48.726;8.892;2023-09-30T17:03:13;15.40;;;6.60;;
31594;SDS011;18200;48.726;8.892;2023-09-30T17:07:14;13.80;;;5.30;;
31594;SDS011;18200;48.726;8.892;2023-09-30T17:11:18;14.38;;;6.55;;
31594;SDS011;18200;48.726;8.892;2023-09-30T17:15:18;15.10;;;6.75;;
31594;SDS011;18200;48.726;8.892;2023-09-30T17:19:19;16.15;;;5.90;;
31594;SDS011;18200;48.726;8.892;2023-09-30T17:23:19;13.52;;;5.93;;
31594;SDS011;18200;48.726;8.892;2023-09-30T17:27:19;14.57;;;5.35;;
31594;SDS011;18200;48.726;8.892;2023-09-30T17:31:20;13.48;;;5.43;;
31594;SDS011;18200;48.726;8.892;2023-09-30T17:35:20;10.50;;;5.35;;
31594;SDS011;18200;48.726;8.892;2023-09-30T17:39:20;20.23;;;10.32;;
31594;SDS011;18200;48.726;8.892;2023-09-30T17:43:21;21.83;;;13.10;;
31594;SDS011;18200;48.726;8.892;2023-09-30T17:47:21;15.30;;;7.55;;
31594;SDS011;18200;48.726;8.892;2023-09-30T17:51:22;14.05;;;5.93;;
31594;SDS011;18200;48.726;8.892;2023-09-30T17:55:22;13.45;;;5.72;;
31594;SDS011;18200;48.726;8.892;2023-09-30T17:59:22;11.60;;;6.00;;
31594;SDS011;18200;48.726;8.892;2023-09-30T18:03:23;13.18;;;6.38;;
31594;SDS011;18200;48.726;8.892;2023-09-30T18:07:23;14.13;;;6.38;;
31594;SDS011;18200;48.726;8.892;2023-09-30T18:11:23;18.10;;;6.78;;
31594;SDS011;18200;48.726;8.892;2023-09-30T18:15:24;13.10;;;5.85;;
31594;SDS011;18200;48.726;8.892;2023-09-30T18:19:24;16.00;;;6.70;;
31594;SDS011;18200;48.726;8.892;2023-09-30T18:23:24;15.30;;;6.65;;
31594;SDS011;18200;48.726;8.892;2023-09-30T18:27:25;18.45;;;7.72;;
31594;SDS011;18200;48.726;8.892;2023-09-30T18:31:25;16.10;;;7.25;;
31594;SDS011;18200;48.726;8.892;2023-09-30T18:35:26;16.67;;;7.50;;
31594;SDS011;18200;48.726;8.892;2023-09-30T18:39:26;14.95;;;6.18;;
31594;SDS011;18200;48.726;8.892;2023-09-30T18:43:27;13.75;;;6.15;;
31594;SDS011;18200;48.726;8.892;2023-09-30T18:47:29;13.55;;;6.70;;
31594;SDS011;18200;48.726;8.892;2023-09-30T18:51:29;13.10;;;6.07;;
31594;SDS011;18200;48.726;8.892;2023-09-30T18:55:30;14.85;;;7.05;;
31594;SDS011;18200;48.726;8.892;2023-09-30T18:59:30;13.48;;;6.35;;
31594;SDS011;18200;48.726;8.892;2023-09-30T19:03:31;16.98;;;7.03;;
31594;SDS011;18200;48.726;8.892;2023-09-30T19:07:31;12.20;;;5.65;;
31594;SDS011;18200;48.726;8.892;2023-09-30T19:11:31;17.08;;;6.55;;
31594;SDS011;18200;48.726;8.892;2023-09-30T19:15:32;13.60;;;6.60;;
31594;SDS011;18200;48.726;8.892;2023-09-30T19:19:32;14.27;;;6.35;;
31594;SDS011;18200;48.726;8.892;2023-09-30T19:23:33;15.82;;;6.78;;
31594;SDS011;18200;48.726;8.892;2023-09-30T19:27:33;16.38;;;7.68;;
31594;SDS011;18200;48.726;8.892;2023-09-30T19:31:34;13.95;;;6.63;;
31594;SDS011;18200;48.726;8.892;2023-09-30T19:35:34;13.88;;;6.75;;
31594;SDS011;18200;48.726;8.892;2023-09-30T19:39:35;12.40;;;6.43;;
31594;SDS011;18200;48.726;8.892;2023-09-30T19:43:35;17.23;;;6.95;;
31594;SDS011;18200;48.726;8.892;2023-09-30T19:47:36;14.15;;;7.60;;
31594;SDS011;18200;48.726;8.892;2023-09-30T19:51:36;14.60;;;6.85;;
31594;SDS011;18200;48.726;8.892;2023-09-30T19:55:37;18.73;;;7.88;;
31594;SDS011;18200;48.726;8.892;2023-09-30T19:59:38;13.73;;;6.70;;
31594;SDS011;18200;48.726;8.892;2023-09-30T20:03:41;15.30;;;7.03;;
31594;SDS011;18200;48.726;8.892;2023-09-30T20:07:43;13.93;;;6.43;;
31594;SDS011;18200;48.726;8.892;2023-09-30T20:11:44;19.17;;;8.18;;
31594;SDS011;18200;48.726;8.892;2023-09-30T20:15:45;17.05;;;8.13;;
31594;SDS011;18200;48.726;8.892;2023-09-30T20:19:45;20.15;;;8.20;;
31594;SDS011;18200;48.726;8.892;2023-09-30T20:23:46;13.40;;;6.35;;
31594;SDS011;18200;48.726;8.892;2023-09-30T20:27:46;12.77;;;5.95;;
31594;SDS011;18200;48.726;8.892;2023-09-30T20:31:47;25.05;;;14.10;;
31594;SDS011;18200;48.726;8.892;2023-09-30T20:35:47;17.67;;;7.18;;
31594;SDS011;18200;48.726;8.892;2023-09-30T20:39:51;16.77;;;7.27;;
31594;SDS011;18200;48.726;8.892;2023-09-30T20:43:51;13.27;;;6.85;;
31594;SDS011;18200;48.726;8.892;2023-09-30T20:47:52;12.77;;;6.72;;
31594;SDS011;18200;48.726;8.892;2023-09-30T20:51:52;16.20;;;7.35;;
31594;SDS011;18200;48.726;8.892;2023-09-30T20:55:52;13.82;;;7.28;;
31594;SDS011;18200;48.726;8.892;2023-09-30T20:59:53;19.27;;;9.00;;
31594;SDS011;18200;48.726;8.892;2023-09-30T21:03:54;15.77;;;7.45;;
31594;SDS011;18200;48.726;8.892;2023-09-30T21:07:54;17.88;;;8.07;;
31594;SDS011;18200;48.726;8.892;2023-09-30T21:11:55;15.35;;;6.90;;
31594;SDS011;18200;48.726;8.892;2023-09-30T21:15:55;18.08;;;7.20;;
31594;SDS011;18200;48.726;8.892;2023-09-30T21:19:55;16.23;;;7.07;;
31594;SDS011;18200;48.726;8.892;2023-09-30T21:23:56;15.88;;;7.90;;
31594;SDS011;18200;48.726;8.892;2023-09-30T21:27:57;16.45;;;7.55;;
31594;SDS011;18200;48.726;8.892;2023-09-30T21:31:57;13.18;;;7.05;;
31594;SDS011;18200;48.726;8.892;2023-09-30T21:35:57;14.32;;;7.10;;
31594;SDS011;18200;48.726;8.892;2023-09-30T21:39:58;17.30;;;7.72;;
31594;SDS011;18200;48.726;8.892;2023-09-30T21:43:58;13.05;;;7.15;;
31594;SDS011;18200;48.726;8.892;2023-09-30T21:47:58;16.55;;;7.28;;
31594;SDS011;18200;48.726;8.892;2023-09-30T21:51:59;14.43;;;7.32;;
31594;SDS011;18200;48.726;8.892;2023-09-30T21:55:59;16.52;;;8.02;;
31594;SDS011;18200;48.726;8.892;2023-09-30T22:00:00;14.63;;;6.82;;
31594;SDS011;18200;48.726;8.892;2023-09-30T22:04:00;13.48;;;7.45;;
31594;SDS011;18200;48.726;8.892;2023-09-30T22:08:01;11.88;;;6.55;;
31594;SDS011;18200;48.726;8.892;2023-09-30T22:12:02;17.02;;;7.72;;
31594;SDS011;18200;48.726;8.892;2023-09-30T22:16:03;17.55;;;7.40;;
31594;SDS011;18200;48.726;8.892;2023-09-30T22:20:04;14.30;;;6.90;;
31594;SDS011;18200;48.726;8.892;2023-09-30T22:24:05;15.63;;;7.30;;
31594;SDS011;18200;48.726;8.892;2023-09-30T22:28:07;15.77;;;7.38;;
31594;SDS011;18200;48.726;8.892;2023-09-30T22:32:08;16.05;;;7.35;;
31594;SDS011;18200;48.726;8.892;2023-09-30T22:36:08;16.38;;;7.32;;
31594;SDS011;18200;48.726;8.892;2023-09-30T22:40:09;20.67;;;7.72;;
31594;SDS011;18200;48.726;8.892;2023-09-30T22:44:09;17.90;;;7.28;;
31594;SDS011;18200;48.726;8.892;2023-09-30T22:48:10;13.50;;;6.80;;
31594;SDS011;18200;48.726;8.892;2023-09-30T22:52:11;15.85;;;7.28;;
31594;SDS011;18200;48.726;8.892;2023-09-30T22:56:14;16.83;;;8.05;;
31594;SDS011;18200;48.726;8.892;2023-09-30T23:00:16;15.98;;;7.80;;
31594;SDS011;18200;48.726;8.892;2023-09-30T23:04:19;15.97;;;7.57;;
31594;SDS011;18200;48.726;8.892;2023-09-30T23:08:20;18.27;;;8.02;;
31594;SDS011;18200;48.726;8.892;2023-09-30T23:12:20;17.17;;;8.05;;
31594;SDS011;18200;48.726;8.892;2023-09-30T23:16:21;24.33;;;9.45;;
31594;SDS011;18200;48.726;8.892;2023-09-30T23:20:21;20.33;;;8.88;;
31594;SDS011;18200;48.726;8.892;2023-09-30T23:24:22;15.65;;;7.30;;
31594;SDS011;18200;48.726;8.892;2023-09-30T23:28:22;17.35;;;8.50;;
31594;SDS011;18200;48.726;8.892;2023-09-30T23:32:24;15.85;;;8.35;;
31594;SDS011;18200;48.726;8.892;2023-09-30T23:36:25;15.75;;;7.30;;
31594;SDS011;18200;48.726;8.892;2023-09-30T23:40:25;17.95;;;7.75;;
31594;SDS011;18200;48.726;8.892;2023-09-30T23:44:25;15.10;;;7.30;;
31594;SDS011;18200;48.726;8.892;2023-09-30T23:48:27;17.50;;;8.27;;
31594;SDS011;18200;48.726;8.892;2023-09-30T23:52:27;16.48;;;7.88;;
31594;SDS011;18200;48.726;8.892;2023-09-30T23:56:27;20.23;;;9.32;;
